createdAt,value
2023-06-14T00:03:33.022Z,101308.06
2023-06-14T00:06:20.846Z,101305.91
2023-06-14T00:08:48.692Z,101305.56
2023-06-14T00:11:16.663Z,101296.19
2023-06-14T00:13:46.923Z,101304.91
2023-06-14T00:16:15.230Z,101298.72
2023-06-14T00:18:43.105Z,101303.75
2023-06-14T00:21:11.081Z,101308.25
2023-06-14T00:23:40.554Z,101309.75
2023-06-14T00:26:08.668Z,101314.59
2023-06-14T00:28:36.926Z,101303.72
2023-06-14T00:31:08.332Z,101309.91
2023-06-14T00:33:36.245Z,101302.38
2023-06-14T00:36:05.629Z,101307.91
2023-06-14T00:38:33.446Z,101309.56
2023-06-14T00:41:02.745Z,101312.75
2023-06-14T00:43:30.666Z,101319.78
2023-06-14T00:45:58.897Z,101310.41
2023-06-14T00:48:26.884Z,101310.59
2023-06-14T00:50:54.894Z,101314.94
2023-06-14T00:53:26.173Z,101308.56
2023-06-14T00:55:54.245Z,101308.25
2023-06-14T00:58:24.086Z,101305.56
2023-06-14T01:00:52.558Z,101311.41
2023-06-14T01:03:23.570Z,101307.91
2023-06-14T01:05:53.806Z,101307.41
2023-06-14T01:08:26.964Z,101309.53
2023-06-14T01:11:01.060Z,101297.19
2023-06-14T01:13:34.199Z,101301.53
2023-06-14T01:16:02.152Z,101304.88
2023-06-14T01:18:33.379Z,101306.88
2023-06-14T01:21:06.703Z,101305.00
2023-06-14T01:23:36.009Z,101303.84
2023-06-14T01:26:05.982Z,101304.81
2023-06-14T01:28:34.803Z,101306.16
2023-06-14T01:31:05.850Z,101306.00
2023-06-14T01:33:35.579Z,101305.84
2023-06-14T01:36:04.773Z,101304.50
2023-06-14T01:38:32.948Z,101309.34
2023-06-14T01:41:03.402Z,101300.16
2023-06-14T01:43:32.203Z,101295.47
2023-06-14T01:46:00.652Z,101295.75
2023-06-14T01:48:29.298Z,101305.31
2023-06-14T01:50:57.218Z,101301.81
2023-06-14T01:53:25.189Z,101299.56
2023-06-14T01:55:55.341Z,101306.09
2023-06-14T01:58:25.744Z,101312.41
2023-06-14T02:00:56.178Z,101308.06
2023-06-14T02:03:24.387Z,101311.69
2023-06-14T02:05:55.381Z,101308.06
2023-06-14T02:08:23.413Z,101313.75
2023-06-14T02:10:53.518Z,101317.88
2023-06-14T02:13:24.765Z,101314.59
2023-06-14T02:15:56.018Z,101319.06
2023-06-14T02:18:24.656Z,101318.56
2023-06-14T02:20:52.567Z,101323.63
2023-06-14T02:23:20.639Z,101321.47
2023-06-14T02:25:48.594Z,101316.19
2023-06-14T02:28:16.537Z,101318.47
2023-06-14T02:30:45.907Z,101319.78
2023-06-14T02:33:14.293Z,101320.69
2023-06-14T02:35:42.573Z,101316.78
2023-06-14T02:38:10.710Z,101314.78
2023-06-14T02:40:38.701Z,101316.44
2023-06-14T02:43:06.660Z,101319.13
2023-06-14T02:45:34.624Z,101322.22
2023-06-14T02:48:04.140Z,101322.72
2023-06-14T02:50:32.115Z,101333.22
2023-06-14T02:53:00.073Z,101322.53
2023-06-14T02:55:28.910Z,101324.38
2023-06-14T02:57:57.128Z,101326.00
2023-06-14T03:00:25.577Z,101318.50
2023-06-14T03:02:55.705Z,101324.72
2023-06-14T03:05:25.381Z,101326.41
2023-06-14T03:07:55.010Z,101323.91
2023-06-14T03:10:23.308Z,101312.69
2023-06-14T03:12:53.522Z,101317.22
2023-06-14T03:15:24.771Z,101317.56
2023-06-14T03:17:54.692Z,101320.09
2023-06-14T03:20:22.844Z,101323.63
2023-06-14T03:22:52.934Z,101315.78
2023-06-14T03:25:22.786Z,101320.09
2023-06-14T03:27:52.376Z,101325.44
2023-06-14T03:30:21.176Z,101325.97
2023-06-14T03:32:52.160Z,101324.97
2023-06-14T03:35:20.346Z,101325.13
2023-06-14T03:37:50.718Z,101323.44
2023-06-14T03:40:21.302Z,101325.13
2023-06-14T03:42:52.667Z,101327.75
2023-06-14T03:45:21.663Z,101332.97
2023-06-14T03:47:49.875Z,101331.50
2023-06-14T03:50:18.155Z,101330.47
2023-06-14T03:52:46.478Z,101331.16
2023-06-14T03:57:47.999Z,101337.59
2023-06-14T04:00:20.160Z,101341.94
2023-06-14T04:02:48.449Z,101345.34
2023-06-14T04:05:17.891Z,101344.72
2023-06-14T04:07:49.545Z,101353.28
2023-06-14T04:10:18.174Z,101343.91
2023-06-14T04:12:48.241Z,101356.16
2023-06-14T04:15:21.411Z,101352.63
2023-06-14T04:17:51.861Z,101350.25
2023-06-14T04:20:21.468Z,101358.81
2023-06-14T04:22:50.343Z,101351.09
2023-06-14T04:25:26.475Z,101355.47
2023-06-14T04:27:56.250Z,101353.97
2023-06-14T04:30:28.166Z,101369.69
2023-06-14T04:32:57.154Z,101360.81
2023-06-14T04:35:26.445Z,101360.66
2023-06-14T04:37:56.175Z,101357.84
2023-06-14T04:40:24.175Z,101348.78
2023-06-14T04:42:52.156Z,101350.13
2023-06-14T04:45:23.071Z,101357.81
2023-06-14T04:47:56.796Z,101355.28
2023-06-14T04:50:25.179Z,101360.16
2023-06-14T04:52:53.587Z,101361.31
2023-06-14T04:55:22.012Z,101363.00
2023-06-14T04:57:50.142Z,101360.16
2023-06-14T05:00:18.946Z,101362.16
2023-06-14T05:02:52.153Z,101362.47
2023-06-14T05:05:20.854Z,101363.91
2023-06-14T05:07:48.768Z,101365.84
2023-06-14T05:10:16.688Z,101362.00
2023-06-14T05:12:45.087Z,101363.84
2023-06-14T05:15:14.437Z,101362.97
2023-06-14T05:17:43.392Z,101353.03
2023-06-14T05:20:13.704Z,101366.19
2023-06-14T05:22:41.744Z,101364.34
2023-06-14T05:25:10.686Z,101377.09
2023-06-14T05:27:38.603Z,101386.69
2023-06-14T05:30:08.141Z,101385.03
2023-06-14T05:32:36.144Z,101384.16
2023-06-14T05:35:04.913Z,101380.97
2023-06-14T05:37:34.171Z,101383.84
2023-06-14T05:40:02.077Z,101385.69
2023-06-14T05:42:29.995Z,101391.09
2023-06-14T05:44:57.847Z,101389.13
2023-06-14T05:47:26.809Z,101387.13
2023-06-14T05:49:54.766Z,101384.16
2023-06-14T05:52:22.662Z,101387.00
2023-06-14T05:54:51.957Z,101391.25
2023-06-14T05:57:19.860Z,101400.25
2023-06-14T05:59:47.708Z,101405.25
2023-06-14T06:02:15.656Z,101408.88
2023-06-14T06:04:43.527Z,101406.53
2023-06-14T06:07:11.405Z,101395.72
2023-06-14T06:09:39.360Z,101404.94
2023-06-14T06:12:09.488Z,101404.94
2023-06-14T06:14:37.341Z,101403.75
2023-06-14T06:17:05.971Z,101403.25
2023-06-14T06:19:33.957Z,101399.34
2023-06-14T06:22:01.827Z,101405.84
2023-06-14T06:24:29.833Z,101404.34
2023-06-14T06:26:57.776Z,101400.97
2023-06-14T06:29:26.950Z,101391.91
2023-06-14T06:31:57.166Z,101392.47
2023-06-14T06:34:25.094Z,101400.19
2023-06-14T06:36:53.095Z,101389.44
2023-06-14T06:39:21.090Z,101394.81
2023-06-14T06:41:49.264Z,101393.66
2023-06-14T06:44:28.908Z,101391.00
2023-06-14T06:46:57.546Z,101403.53
2023-06-14T06:49:25.534Z,101397.19
2023-06-14T06:52:03.825Z,101398.78
2023-06-14T06:54:31.886Z,101402.41
2023-06-14T06:57:00.159Z,101402.59
2023-06-14T06:59:29.502Z,101407.06
2023-06-14T07:01:57.534Z,101416.63
2023-06-14T07:04:25.529Z,101410.59
2023-06-14T07:06:53.459Z,101413.00
2023-06-14T07:09:21.704Z,101420.84
2023-06-14T07:11:50.049Z,101413.53
2023-06-14T07:14:17.980Z,101423.28
2023-06-14T07:16:47.941Z,101420.03
2023-06-14T07:19:15.986Z,101419.56
2023-06-14T07:21:44.044Z,101420.94
2023-06-14T07:24:12.067Z,101419.41
2023-06-14T07:26:40.032Z,101430.84
2023-06-14T07:29:08.016Z,101438.19
2023-06-14T07:31:36.239Z,101436.41
2023-06-14T07:34:05.710Z,101439.28
2023-06-14T07:36:33.718Z,101433.66
2023-06-14T07:39:04.545Z,101438.69
2023-06-14T07:41:32.489Z,101436.19
2023-06-14T07:44:00.491Z,101423.91
2023-06-14T07:46:28.509Z,101433.91
2023-06-14T07:48:56.494Z,101438.25
2023-06-14T07:51:26.027Z,101435.16
2023-06-14T07:53:54.225Z,101439.19
2023-06-14T07:56:22.395Z,101432.00
2023-06-14T07:58:50.448Z,101431.75
2023-06-14T08:01:18.817Z,101422.63
2023-06-14T08:03:46.838Z,101414.97
2023-06-14T08:06:14.784Z,101413.47
2023-06-14T08:08:44.079Z,101421.06
2023-06-14T08:11:12.041Z,101416.47
2023-06-14T08:13:39.942Z,101421.91
2023-06-14T08:16:07.868Z,101412.31
2023-06-14T08:18:35.812Z,101418.31
2023-06-14T08:21:04.552Z,101418.94
2023-06-14T08:23:32.496Z,101423.66
2023-06-14T08:26:02.674Z,101416.72
2023-06-14T08:28:30.787Z,101415.16
2023-06-14T08:30:58.723Z,101415.06
2023-06-14T08:33:26.701Z,101411.44
2023-06-14T08:35:54.718Z,101419.41
2023-06-14T08:38:22.924Z,101411.00
2023-06-14T08:40:52.885Z,101411.38
2023-06-14T08:43:22.288Z,101408.91
2023-06-14T08:45:51.779Z,101396.84
2023-06-14T08:48:21.228Z,101405.34
2023-06-14T08:50:52.021Z,101414.94
2023-06-14T08:53:23.184Z,101414.69
2023-06-14T08:55:51.641Z,101419.38
2023-06-14T08:58:20.613Z,101410.97
2023-06-14T09:00:50.508Z,101413.69
2023-06-14T09:03:18.586Z,101417.00
2023-06-14T09:05:47.284Z,101412.66
2023-06-14T09:08:15.329Z,101412.84
2023-06-14T09:10:43.451Z,101415.75
2023-06-14T09:13:12.591Z,101418.69
2023-06-14T09:15:41.792Z,101422.22
2023-06-14T09:18:14.487Z,101419.31
2023-06-14T09:20:43.935Z,101422.88
2023-06-14T09:23:15.608Z,101424.09
2023-06-14T09:25:46.564Z,101423.69
2023-06-14T09:28:16.361Z,101413.63
2023-06-14T09:30:46.449Z,101416.19
2023-06-14T09:33:22.206Z,101427.31
2023-06-14T09:35:54.823Z,101421.63
2023-06-14T09:38:22.985Z,101423.69
2023-06-14T09:40:52.120Z,101418.28
2023-06-14T09:43:20.749Z,101420.16
2023-06-14T09:45:50.144Z,101420.97
2023-06-14T09:48:21.592Z,101429.63
2023-06-14T09:50:53.813Z,101428.31
2023-06-14T09:53:26.393Z,101415.59
2023-06-14T09:55:57.552Z,101426.19
2023-06-14T09:58:30.169Z,101426.41
2023-06-14T10:01:00.753Z,101424.72
2023-06-14T10:03:43.179Z,101422.28
2023-06-14T10:06:22.859Z,101420.28
2023-06-14T10:08:53.244Z,101419.13
2023-06-14T10:11:22.877Z,101422.66
2023-06-14T10:13:53.054Z,101417.00
2023-06-14T10:16:28.360Z,101418.13
2023-06-14T10:19:04.937Z,101419.72
2023-06-14T10:21:43.735Z,101417.53
2023-06-14T10:24:17.061Z,101416.38
2023-06-14T10:26:58.351Z,101414.94
2023-06-14T10:29:33.721Z,101411.34
2023-06-14T10:32:05.255Z,101417.13
2023-06-14T10:34:36.472Z,101407.34
2023-06-14T10:37:07.671Z,101407.34
2023-06-14T10:39:42.998Z,101405.59
2023-06-14T10:42:12.345Z,101396.50
2023-06-14T10:44:42.256Z,101409.53
2023-06-14T10:47:12.786Z,101408.28
2023-06-14T10:49:44.795Z,101405.16
2023-06-14T10:52:20.055Z,101402.78
2023-06-14T10:55:10.192Z,101395.44
2023-06-14T10:57:51.069Z,101392.59
2023-06-14T11:00:23.676Z,101397.09
2023-06-14T11:03:27.986Z,101395.84
2023-06-14T11:05:58.527Z,101388.53
2023-06-14T11:09:07.687Z,101382.47
2023-06-14T11:11:36.423Z,101383.25
2023-06-14T11:14:04.810Z,101390.31
2023-06-14T11:16:34.440Z,101388.91
2023-06-14T11:19:04.194Z,101373.69
2023-06-14T11:21:34.569Z,101373.28
2023-06-14T11:24:02.675Z,101373.09
2023-06-14T11:26:31.800Z,101371.94
2023-06-14T11:29:00.840Z,101363.47
2023-06-14T11:31:29.590Z,101360.78
2023-06-14T11:33:58.557Z,101356.69
2023-06-14T11:36:30.687Z,101366.63
2023-06-14T11:39:04.063Z,101363.31
2023-06-14T11:41:36.895Z,101356.22
2023-06-14T11:44:05.448Z,101353.53
2023-06-14T11:46:33.389Z,101351.16
2023-06-14T11:49:04.047Z,101350.44
2023-06-14T11:51:32.526Z,101346.31
2023-06-14T11:54:00.728Z,101331.66
2023-06-14T11:56:30.410Z,101339.94
2023-06-14T11:58:58.726Z,101328.66
2023-06-14T12:01:26.813Z,101325.13
2023-06-14T12:03:55.998Z,101322.38
2023-06-14T12:06:34.370Z,101325.81
2023-06-14T12:09:07.179Z,101323.06
2023-06-14T12:11:37.805Z,101313.59
2023-06-14T12:14:06.438Z,101313.84
2023-06-14T12:16:35.400Z,101315.72
2023-06-14T12:19:11.344Z,101298.94
2023-06-14T12:21:41.340Z,101296.41
2023-06-14T12:24:11.842Z,101293.63
2023-06-14T12:26:42.200Z,101289.00
2023-06-14T12:29:10.298Z,101294.13
2023-06-14T12:31:38.220Z,101286.97
2023-06-14T12:34:06.182Z,101286.22
2023-06-14T12:36:35.007Z,101280.44
2023-06-14T12:39:03.080Z,101278.00
2023-06-14T12:41:31.180Z,101287.53
2023-06-14T12:44:02.432Z,101285.34
2023-06-14T12:46:30.934Z,101280.47
2023-06-14T12:48:58.877Z,101278.41
2023-06-14T12:51:27.072Z,101278.84
2023-06-14T12:53:54.962Z,101275.50
2023-06-14T12:56:24.792Z,101271.91
2023-06-14T12:58:52.990Z,101264.59
2023-06-14T13:01:22.414Z,101256.38
2023-06-14T13:03:51.869Z,101267.75
2023-06-14T13:06:19.973Z,101272.59
2023-06-14T13:08:47.958Z,101269.00
2023-06-14T13:11:15.888Z,101268.97
2023-06-14T13:13:43.818Z,101259.84
2023-06-14T13:16:12.034Z,101248.38
2023-06-14T13:18:41.312Z,101250.75
2023-06-14T13:21:09.224Z,101238.28
2023-06-14T13:23:37.137Z,101247.09
2023-06-14T13:26:05.034Z,101246.03
2023-06-14T13:28:33.678Z,101253.13
2023-06-14T13:31:01.797Z,101236.44
2023-06-14T13:33:30.744Z,101233.47
2023-06-14T13:35:59.910Z,101237.16
2023-06-14T13:38:27.927Z,101235.13
2023-06-14T13:40:56.264Z,101232.81
2023-06-14T13:43:24.522Z,101224.66
2023-06-14T14:30:15.536Z,101212.84
2023-06-14T14:32:44.485Z,101205.28
2023-06-14T14:35:14.389Z,101213.75
2023-06-14T14:37:42.300Z,101210.06
2023-06-14T14:40:12.585Z,101222.22
2023-06-14T14:42:40.553Z,101213.38
2023-06-14T14:45:09.438Z,101215.22
2023-06-14T14:47:38.333Z,101210.63
2023-06-14T14:50:09.673Z,101225.09
2023-06-14T14:52:37.768Z,101217.34
2023-06-14T14:55:06.707Z,101217.63
2023-06-14T14:57:37.392Z,101219.41
2023-06-14T15:00:06.608Z,101215.50
2023-06-14T15:02:34.764Z,101218.81
2023-06-14T15:05:03.653Z,101225.41
2023-06-14T15:07:34.559Z,101235.78
2023-06-14T15:10:02.717Z,101233.13
2023-06-14T15:12:32.729Z,101235.34
2023-06-14T15:15:01.960Z,101234.66
2023-06-14T15:17:31.642Z,101236.69
2023-06-14T15:19:59.605Z,101232.47
2023-06-14T15:22:27.456Z,101233.88
2023-06-14T15:24:55.432Z,101239.03
2023-06-14T15:27:23.509Z,101242.56
2023-06-14T15:29:51.830Z,101238.25
2023-06-14T15:32:21.313Z,101236.03
2023-06-14T15:34:49.602Z,101242.28
2023-06-14T15:37:17.668Z,101231.56
2023-06-14T15:39:45.605Z,101222.25
2023-06-14T15:42:13.675Z,101231.72
2023-06-14T15:44:42.859Z,101231.13
2023-06-14T15:47:10.858Z,101232.97
2023-06-14T15:49:40.162Z,101225.53
2023-06-14T15:52:08.960Z,101228.06
2023-06-14T15:54:36.915Z,101241.19
2023-06-14T15:57:05.175Z,101234.13
2023-06-14T15:59:33.123Z,101238.88
2023-06-14T16:02:01.121Z,101235.88
2023-06-14T16:04:29.753Z,101236.19
2023-06-14T16:06:59.065Z,101239.78
2023-06-14T16:09:27.029Z,101232.19
2023-06-14T16:11:55.892Z,101230.88
2023-06-14T16:14:23.784Z,101229.88
2023-06-14T16:16:53.333Z,101230.22
2023-06-14T16:19:22.187Z,101225.84
2023-06-14T16:21:50.256Z,101234.25
2023-06-14T16:24:19.811Z,101228.50
2023-06-14T16:26:47.834Z,101230.53
2023-06-14T16:29:15.989Z,101231.19
2023-06-14T16:31:43.922Z,101232.94
2023-06-14T16:34:12.603Z,101233.13
2023-06-14T16:36:40.676Z,101231.09
2023-06-14T16:39:08.752Z,101237.56
2023-06-14T16:41:38.120Z,101232.81
2023-06-14T16:44:06.454Z,101232.16
2023-06-14T16:46:36.031Z,101230.81
2023-06-14T16:49:04.308Z,101233.50
2023-06-14T16:51:32.261Z,101234.56
2023-06-14T16:54:00.166Z,101239.16
2023-06-14T16:56:28.659Z,101246.50
2023-06-14T16:58:59.364Z,101245.06
2023-06-14T17:01:27.916Z,101249.53
2023-06-14T17:03:55.985Z,101243.91
2023-06-14T17:06:25.005Z,101250.59
2023-06-14T17:08:54.284Z,101245.72
2023-06-14T17:11:24.288Z,101245.94
2023-06-14T17:13:52.807Z,101252.69
2023-06-14T17:16:23.626Z,101249.19
2023-06-14T17:18:51.963Z,101251.94
2023-06-14T17:21:19.962Z,101259.66
2023-06-14T17:23:47.916Z,101255.50
2023-06-14T17:26:15.966Z,101257.41
2023-06-14T17:28:43.911Z,101257.41
2023-06-14T17:31:11.889Z,101264.91
2023-06-14T17:33:41.341Z,101268.28
2023-06-14T17:36:09.860Z,101266.84
2023-06-14T17:38:37.992Z,101271.63
2023-06-14T17:41:10.017Z,101271.84
2023-06-14T17:43:38.392Z,101278.69
2023-06-14T17:46:06.930Z,101273.09
2023-06-14T17:48:35.153Z,101270.81
2023-06-14T17:51:07.328Z,101269.16
2023-06-14T17:53:36.061Z,101264.56
2023-06-14T17:56:05.181Z,101266.66
2023-06-14T17:58:33.150Z,101273.13
2023-06-14T18:01:02.051Z,101269.59
2023-06-14T18:03:30.233Z,101269.63
2023-06-14T18:06:01.347Z,101274.63
2023-06-14T18:08:30.922Z,101276.28
2023-06-14T18:10:58.815Z,101271.91
2023-06-14T18:13:26.848Z,101275.66
2023-06-14T18:15:55.092Z,101276.09
2023-06-14T18:18:23.028Z,101277.75
2023-06-14T18:20:51.180Z,101279.22
2023-06-14T18:23:19.282Z,101277.56
2023-06-14T18:25:48.597Z,101278.63
2023-06-14T18:28:16.852Z,101278.41
2023-06-14T18:30:45.470Z,101270.50
2023-06-14T18:33:13.701Z,101272.59
2023-06-14T18:35:41.676Z,101274.47
2023-06-14T18:38:09.821Z,101274.66
2023-06-14T18:40:38.056Z,101275.50
2023-06-14T18:43:08.955Z,101271.13
2023-06-14T18:45:38.047Z,101269.88
2023-06-14T18:48:06.644Z,101274.03
2023-06-14T18:50:35.463Z,101278.84
2023-06-14T18:53:03.438Z,101272.19
2023-06-14T18:55:31.311Z,101272.63
2023-06-14T18:57:59.224Z,101275.72
2023-06-14T19:00:31.085Z,101273.44
2023-06-14T19:02:59.287Z,101275.50
2023-06-14T19:05:27.295Z,101275.06
2023-06-14T19:07:55.234Z,101276.94
2023-06-14T19:10:23.461Z,101277.38
2023-06-14T19:12:51.425Z,101283.00
2023-06-14T19:15:19.592Z,101284.22
2023-06-14T19:17:58.685Z,101283.38
2023-06-14T19:20:27.039Z,101280.88
2023-06-14T19:22:55.118Z,101281.09
2023-06-14T19:25:23.051Z,101281.50
2023-06-14T19:27:51.360Z,101273.81
2023-06-14T19:30:20.085Z,101282.78
2023-06-14T19:32:50.459Z,101289.44
2023-06-14T19:35:22.801Z,101282.75
2023-06-14T19:37:51.553Z,101279.88
2023-06-14T19:40:20.249Z,101280.03
2023-06-14T19:42:48.498Z,101285.25
2023-06-14T19:45:16.702Z,101285.66
2023-06-14T19:47:45.768Z,101287.13
2023-06-14T19:50:14.030Z,101297.31
2023-06-14T19:52:43.521Z,101284.84
2023-06-14T19:55:11.655Z,101294.59
2023-06-14T19:57:42.460Z,101293.31
2023-06-14T20:00:11.504Z,101299.56
2023-06-14T20:02:39.625Z,101299.78
2023-06-14T20:05:09.174Z,101300.19
2023-06-14T20:07:37.194Z,101298.72
2023-06-14T20:10:07.724Z,101300.38
2023-06-14T20:12:35.574Z,101299.97
2023-06-14T20:15:03.598Z,101304.94
2023-06-14T20:17:34.617Z,101311.78
2023-06-14T20:20:02.795Z,101300.34
2023-06-14T20:22:30.772Z,101310.13
2023-06-14T20:24:58.664Z,101308.66
2023-06-14T20:27:27.932Z,101309.47
2023-06-14T20:29:55.869Z,101314.06
2023-06-14T20:32:23.862Z,101313.81
2023-06-14T20:34:51.809Z,101306.75
2023-06-14T20:37:20.221Z,101310.06
2023-06-14T20:39:48.798Z,101309.81
2023-06-14T20:42:29.222Z,101307.53
2023-06-14T20:44:59.873Z,101304.19
2023-06-14T20:47:28.116Z,101298.16
2023-06-14T20:49:57.253Z,101308.13
2023-06-14T20:52:26.471Z,101301.91
2023-06-14T20:54:55.538Z,101308.31
2023-06-14T20:57:24.036Z,101307.69
2023-06-14T20:59:52.126Z,101310.16
2023-06-14T21:02:21.355Z,101311.81
2023-06-14T21:04:49.364Z,101309.13
2023-06-14T21:07:17.482Z,101304.53
2023-06-14T21:09:45.890Z,101308.84
2023-06-14T21:12:13.906Z,101311.56
2023-06-14T21:14:41.852Z,101310.50
2023-06-14T21:17:10.888Z,101309.88
2023-06-14T21:19:42.491Z,101309.66
2023-06-14T21:22:11.814Z,101300.91
2023-06-14T21:24:39.759Z,101306.69
2023-06-14T21:27:09.960Z,101304.19
2023-06-14T21:29:40.562Z,101302.13
2023-06-14T21:32:11.672Z,101301.69
2023-06-14T21:34:43.879Z,101303.56
2023-06-14T21:37:12.118Z,101295.03
2023-06-14T21:39:40.472Z,101291.50
2023-06-14T21:42:09.031Z,101300.84
2023-06-14T21:44:40.331Z,101297.91
2023-06-14T21:47:08.326Z,101292.88
2023-06-14T21:49:36.314Z,101294.13
2023-06-14T21:52:06.173Z,101293.88
2023-06-14T21:54:34.194Z,101293.25
2023-06-14T21:57:02.295Z,101294.09
2023-06-14T21:59:30.273Z,101297.81
2023-06-14T22:01:58.147Z,101292.81
2023-06-14T22:04:26.012Z,101293.00
2023-06-14T22:06:53.918Z,101284.06
2023-06-14T22:09:23.715Z,101293.19
2023-06-14T22:11:51.685Z,101292.28
2023-06-14T22:14:22.140Z,101296.03
2023-06-14T22:16:52.474Z,101296.41
2023-06-14T22:19:21.129Z,101301.19
2023-06-14T22:21:52.105Z,101293.84
2023-06-14T22:24:20.863Z,101286.34
2023-06-14T22:26:50.264Z,101283.84
2023-06-14T22:29:23.567Z,101289.88
2023-06-14T22:31:51.767Z,101287.97
2023-06-14T22:34:20.207Z,101291.06
2023-06-14T22:36:48.917Z,101284.97
2023-06-14T22:39:16.929Z,101285.38
2023-06-14T22:41:48.647Z,101298.41
2023-06-14T22:44:19.105Z,101285.69
2023-06-14T22:46:47.269Z,101290.81
2023-06-14T22:49:17.976Z,101288.91
2023-06-14T22:51:46.098Z,101288.00
2023-06-14T22:54:13.992Z,101286.13
2023-06-14T22:56:42.685Z,101275.50
2023-06-14T22:59:10.728Z,101287.50
2023-06-14T23:01:40.126Z,101286.19
2023-06-14T23:04:10.272Z,101282.81
2023-06-14T23:06:42.401Z,101286.06
2023-06-14T23:09:10.449Z,101287.63
2023-06-14T23:11:38.389Z,101285.50
2023-06-14T23:14:06.326Z,101280.91
2023-06-14T23:16:36.356Z,101291.22
2023-06-14T23:19:06.742Z,101290.94
2023-06-14T23:21:37.161Z,101282.41
2023-06-14T23:24:06.591Z,101280.28
2023-06-14T23:26:34.585Z,101289.56
2023-06-14T23:29:03.345Z,101286.41
2023-06-14T23:31:31.656Z,101285.38
2023-06-14T23:33:59.697Z,101287.63
2023-06-14T23:36:31.950Z,101288.00
2023-06-14T23:39:01.020Z,101275.94
2023-06-14T23:41:32.662Z,101275.69
2023-06-14T23:44:02.443Z,101273.16
2023-06-14T23:46:30.639Z,101274.56
2023-06-14T23:48:58.725Z,101276.59
2023-06-14T23:51:26.646Z,101276.78
2023-06-14T23:53:58.763Z,101278.19
2023-06-14T23:56:28.377Z,101277.72
2023-06-14T23:58:56.278Z,101284.97
